Time;durP1;ratioP1;P1;durP2;ratioP2;P2;SDS_P1;SDS_P2;PMS_P1;PMS_P2;Temp;Humidity;BMP_temperature;BMP_pressure;BME280_temperature;BME280_humidity;BME280_pressure;Samples;Min_cycle;Max_cycle;Signal;HPM_P1;HPM_P2
2023/06/15 00:02:33;;;;;;;2.55;1.63;;;;;;;20.46;62.71;101710.66;21048174;28;20048;-72
2023/06/15 00:12:35;;;;;;;1.83;1.73;;;;;;;20.37;62.59;101699.66;21030087;28;20040;-72
2023/06/15 00:22:38;;;;;;;1.83;1.40;;;;;;;20.42;62.63;101719.06;21074884;28;20635;-72
2023/06/15 00:32:40;;;;;;;1.95;1.40;;;;;;;20.41;62.36;101717.34;21061290;28;20413;-72
2023/06/15 00:42:44;;;;;;;2.25;1.48;;;;;;;20.39;62.40;101721.16;21059963;28;20071;-72
2023/06/15 00:52:49;;;;;;;1.50;1.40;;;;;;;20.37;62.41;101718.59;21077636;28;20401;-72
2023/06/15 01:02:53;;;;;;;2.37;1.33;;;;;;;20.36;62.26;101718.72;21058335;28;20571;-72
2023/06/15 01:12:57;;;;;;;3.63;2.10;;;;;;;20.35;62.27;101717.00;21075449;28;20047;-72
2023/06/15 01:23:30;;;;;;;1.98;1.60;;;;;;;20.33;62.27;101708.16;21054646;28;20040;-72
2023/06/15 01:33:32;;;;;;;1.98;1.50;;;;;;;20.31;62.27;101702.88;21041683;28;20093;-72
2023/06/15 01:43:34;;;;;;;1.95;1.45;;;;;;;20.27;62.38;101702.31;21072944;28;20048;-72
2023/06/15 01:53:36;;;;;;;1.70;1.60;;;;;;;20.27;62.23;101718.53;21037620;28;20058;-72
2023/06/15 02:03:37;;;;;;;1.63;1.52;;;;;;;20.26;62.09;101724.94;21071665;28;20079;-72
2023/06/15 02:13:45;;;;;;;1.60;1.50;;;;;;;20.25;62.18;101717.81;21052402;28;20040;-72
2023/06/15 02:23:48;;;;;;;2.10;1.58;;;;;;;20.25;62.00;101711.53;21037073;28;20147;-72
2023/06/15 02:33:50;;;;;;;2.00;1.40;;;;;;;20.23;62.14;101713.50;20885131;28;20421;-73
2023/06/15 02:43:52;;;;;;;1.90;1.52;;;;;;;20.15;62.03;101703.38;20902325;28;20456;-72
2023/06/15 02:53:54;;;;;;;1.85;1.65;;;;;;;20.20;62.00;101716.47;20883834;28;20063;-72
2023/06/15 03:03:56;;;;;;;1.65;1.40;;;;;;;20.19;62.00;101721.03;20883164;28;20049;-72
2023/06/15 03:13:59;;;;;;;1.65;1.52;;;;;;;20.18;62.01;101723.84;20866285;28;20100;-73
2023/06/15 03:24:08;;;;;;;2.30;1.50;;;;;;;20.16;61.87;101717.72;20928640;28;20040;-73
2023/06/15 03:34:11;;;;;;;1.60;1.50;;;;;;;20.16;61.99;101731.25;20987517;28;20456;-72
2023/06/15 03:44:15;;;;;;;2.67;2.05;;;;;;;20.13;61.88;101733.22;20936113;28;20040;-73
2023/06/15 03:54:18;;;;;;;1.70;1.35;;;;;;;20.11;61.80;101729.78;20921749;28;20556;-72
2023/06/15 04:04:20;;;;;;;5.55;3.00;;;;;;;19.79;62.66;101733.34;20958768;28;20107;-73
2023/06/15 04:14:22;;;;;;;4.93;3.03;;;;;;;18.53;67.26;101729.03;20950075;28;20106;-74
2023/06/15 04:24:24;;;;;;;4.97;3.25;;;;;;;17.98;70.19;101726.91;20942452;28;20036;-73
2023/06/15 04:34:26;;;;;;;6.82;3.45;;;;;;;18.09;71.45;101742.28;20946821;28;20052;-73
2023/06/15 04:44:28;;;;;;;3.88;3.30;;;;;;;18.35;71.66;101742.13;20937433;28;20493;-73
2023/06/15 04:54:31;;;;;;;4.60;3.30;;;;;;;18.50;72.08;101743.63;20952913;28;20489;-73
2023/06/15 05:04:34;;;;;;;5.38;3.00;;;;;;;18.68;72.23;101748.53;20949261;28;20088;-72
2023/06/15 05:14:36;;;;;;;4.47;3.05;;;;;;;18.80;72.61;101754.81;20940989;28;20045;-73
2023/06/15 05:24:40;;;;;;;4.75;2.60;;;;;;;18.85;72.97;101760.69;20968224;28;20804;-72
2023/06/15 05:34:43;;;;;;;4.00;3.10;;;;;;;18.86;73.49;101750.78;20931096;28;20095;-74
2023/06/15 05:44:44;;;;;;;3.83;1.95;;;;;;;19.05;72.50;101755.59;20946187;28;20047;-75
2023/06/15 05:54:46;;;;;;;2.70;1.85;;;;;;;19.24;70.85;101754.97;20927101;28;20074;-75
2023/06/15 06:04:48;;;;;;;2.47;1.60;;;;;;;19.37;69.43;101761.09;20929523;28;20051;-74
2023/06/15 06:14:50;;;;;;;1.60;1.50;;;;;;;19.48;68.26;101760.22;20975823;28;20050;-75
2023/06/15 06:24:52;;;;;;;2.85;1.90;;;;;;;19.52;67.33;101755.41;20981898;28;20042;-75
2023/06/15 06:34:54;;;;;;;2.63;1.77;;;;;;;19.53;66.66;101746.31;20930216;28;20139;-75
2023/06/15 06:44:56;;;;;;;3.05;2.08;;;;;;;19.59;66.36;101750.38;20943556;28;20056;-75
2023/06/15 06:54:57;;;;;;;3.17;2.08;;;;;;;19.61;65.72;101753.78;20942752;28;20052;-72
2023/06/15 07:04:59;;;;;;;2.60;1.98;;;;;;;19.63;65.16;101751.81;20939929;28;20049;-72
2023/06/15 07:15:01;;;;;;;2.35;1.65;;;;;;;19.65;64.86;101756.09;20938314;28;20051;-73
2023/06/15 07:25:03;;;;;;;2.53;2.17;;;;;;;19.71;65.06;101760.13;20950568;28;20083;-73
2023/06/15 07:35:04;;;;;;;3.05;1.90;;;;;;;19.77;65.12;101762.31;20923787;28;20061;-73
2023/06/15 07:45:07;;;;;;;3.15;1.92;;;;;;;19.82;65.22;101757.41;20956607;28;20048;-73
2023/06/15 07:55:08;;;;;;;2.42;1.90;;;;;;;19.88;64.92;101756.03;20931500;28;20060;-73
2023/06/15 08:05:10;;;;;;;2.42;1.80;;;;;;;19.95;64.38;101757.25;20970264;28;20045;-72
2023/06/15 08:15:13;;;;;;;2.00;1.70;;;;;;;20.10;64.30;101755.13;20993923;28;20053;-73
2023/06/15 08:25:16;;;;;;;1.83;1.45;;;;;;;20.25;63.77;101747.53;20979543;28;20465;-73
2023/06/15 08:35:18;;;;;;;2.40;1.60;;;;;;;20.38;63.12;101744.66;20988230;28;20504;-73
2023/06/15 08:45:20;;;;;;;2.33;1.67;;;;;;;20.43;62.69;101733.41;20987040;28;20403;-73
2023/06/15 08:55:22;;;;;;;1.55;1.45;;;;;;;20.58;62.26;101742.06;20961279;28;20135;-72
2023/06/15 09:05:25;;;;;;;1.92;1.67;;;;;;;20.66;62.06;101736.81;20930019;28;20088;-73
2023/06/15 09:15:28;;;;;;;2.42;1.70;;;;;;;20.75;61.86;101737.00;20939183;28;20404;-72
2023/06/15 09:25:33;;;;;;;2.00;1.40;;;;;;;20.79;61.88;101749.31;20911785;28;1044374;-72
2023/06/15 09:35:35;;;;;;;2.17;1.52;;;;;;;20.80;61.75;101732.09;20958768;28;20562;-73
2023/06/15 09:45:36;;;;;;;2.55;1.80;;;;;;;20.81;62.03;101728.41;20947542;28;20611;-72
2023/06/15 09:55:43;;;;;;;2.72;1.50;;;;;;;20.82;62.01;101733.66;20946352;28;20045;-73
2023/06/15 10:05:46;;;;;;;3.08;1.80;;;;;;;20.81;61.67;101720.28;20953953;28;20053;-73
2023/06/15 10:15:52;;;;;;;2.38;1.60;;;;;;;20.79;61.17;101716.84;20921276;28;20455;-73
2023/06/15 10:25:55;;;;;;;2.05;1.60;;;;;;;20.80;61.09;101718.56;20967372;28;20056;-73
2023/06/15 10:36:11;;;;;;;3.20;1.90;;;;;;;20.79;60.88;101722.25;20963851;28;20424;-74
2023/06/15 10:46:25;;;;;;;2.03;1.70;;;;;;;20.81;60.69;101717.56;20925383;28;20510;-77
2023/06/15 10:56:27;;;;;;;1.60;1.47;;;;;;;20.84;60.49;101722.72;20933225;28;20044;-76
2023/06/15 11:06:35;;;;;;;2.20;2.00;;;;;;;20.87;60.08;101717.03;20879092;28;21417;-79
2023/06/15 11:16:38;;;;;;;2.20;1.77;;;;;;;20.89;59.78;101723.16;20900887;28;20136;-77
2023/06/15 11:26:40;;;;;;;2.35;1.40;;;;;;;20.95;59.62;101706.38;20935754;28;20049;-73
2023/06/15 11:36:42;;;;;;;1.67;1.50;;;;;;;20.98;59.52;101705.22;20937335;28;20488;-72
2023/06/15 11:46:57;;;;;;;2.35;1.80;;;;;;;21.00;59.75;101695.97;20933142;28;20155;-73
2023/06/15 11:57:00;;;;;;;2.03;1.63;;;;;;;21.02;59.44;101687.75;20949282;28;20069;-76
2023/06/15 12:07:04;;;;;;;1.90;1.52;;;;;;;21.06;59.06;101685.59;20911128;28;20128;-76
2023/06/15 12:17:06;;;;;;;1.77;1.67;;;;;;;21.09;58.67;101691.59;20902245;28;20040;-75
2023/06/15 12:27:15;;;;;;;1.48;1.38;;;;;;;21.12;58.02;101685.03;20943525;28;20048;-78
2023/06/15 12:37:17;;;;;;;1.90;1.67;;;;;;;21.15;57.72;101676.63;20934527;28;20064;-77
2023/06/15 12:47:19;;;;;;;2.05;1.63;;;;;;;21.17;57.02;101679.22;20914268;28;20049;-73
2023/06/15 12:57:20;;;;;;;2.03;1.83;;;;;;;21.19;56.76;101669.94;20937730;28;20037;-74
2023/06/15 13:07:24;;;;;;;1.88;1.67;;;;;;;21.19;57.13;101659.09;20937993;28;20530;-74
2023/06/15 13:17:26;;;;;;;2.55;1.92;;;;;;;21.21;56.78;101650.84;20914920;28;20044;-74
2023/06/15 13:27:27;;;;;;;1.85;1.70;;;;;;;21.21;56.49;101653.56;20941141;28;20390;-77
2023/06/15 13:37:29;;;;;;;2.63;2.08;;;;;;;21.21;56.23;101646.31;20935415;28;20048;-75
2023/06/15 13:47:37;;;;;;;1.95;1.75;;;;;;;21.19;56.33;101637.44;20926724;28;20049;-76
2023/06/15 13:57:39;;;;;;;2.27;1.73;;;;;;;21.26;56.24;101638.63;20917770;28;20037;-79
2023/06/15 14:07:41;;;;;;;2.20;1.90;;;;;;;21.32;56.77;101629.06;20924866;28;20041;-76
2023/06/15 14:17:43;;;;;;;2.75;1.90;;;;;;;21.35;56.45;101623.34;20913386;28;20131;-77
2023/06/15 14:27:47;;;;;;;1.88;1.70;;;;;;;21.38;57.19;101624.94;20923108;28;20049;-76
2023/06/15 14:37:51;;;;;;;;;;;;;;;21.25;57.57;101608.97;20933025;28;20075;-84
2023/06/15 14:47:52;;;;;;;3.00;1.60;;;;;;;21.38;58.04;101619.53;20924892;28;20293;-79
2023/06/15 14:57:54;;;;;;;2.35;2.13;;;;;;;21.38;58.66;101611.41;20935333;28;20063;-74
2023/06/15 15:07:56;;;;;;;2.10;1.90;;;;;;;21.30;60.96;101612.97;20906864;28;20056;-70
2023/06/15 15:17:57;;;;;;;3.45;1.60;;;;;;;21.19;61.17;101609.53;20908818;28;20054;-74
2023/06/15 15:27:59;;;;;;;4.28;2.00;;;;;;;21.16;62.80;101607.94;20882902;28;20049;-68
2023/06/15 15:38:01;;;;;;;4.15;2.08;;;;;;;21.18;65.98;101607.81;20901599;28;20053;-76
2023/06/15 15:48:03;;;;;;;1.90;1.70;;;;;;;21.19;66.93;101609.53;20903026;28;20072;-77
2023/06/15 15:58:08;;;;;;;3.35;2.00;;;;;;;21.22;66.92;101598.41;20930233;28;20040;-77
2023/06/15 16:08:12;;;;;;;2.28;1.90;;;;;;;21.16;66.55;101583.56;20926519;28;20037;-75
2023/06/15 16:18:13;;;;;;;2.55;1.92;;;;;;;21.21;67.24;101589.44;20912410;28;20167;-75
2023/06/15 16:28:15;;;;;;;2.53;1.85;;;;;;;21.19;66.75;101588.72;20900178;28;20045;-72
2023/06/15 16:38:17;;;;;;;2.05;1.85;;;;;;;21.19;66.86;101594.13;20905032;28;20041;-72
2023/06/15 16:48:18;;;;;;;2.72;2.40;;;;;;;20.93;66.07;101559.50;20925323;28;20130;-72
2023/06/15 16:58:20;;;;;;;4.63;2.45;;;;;;;21.11;65.92;101591.28;20921648;28;20059;-76
2023/06/15 17:08:23;;;;;;;3.05;2.17;;;;;;;21.08;66.03;101605.09;20931192;28;20148;-72
2023/06/15 17:18:24;;;;;;;3.33;2.15;;;;;;;21.04;66.01;101606.38;20954508;28;20045;-72
2023/06/15 17:28:26;;;;;;;3.63;2.10;;;;;;;21.01;66.55;101611.06;20990586;28;20080;-72
2023/06/15 17:38:29;;;;;;;4.22;2.50;;;;;;;20.99;66.27;101613.06;20989984;28;20136;-73
2023/06/15 17:48:30;;;;;;;2.45;2.25;;;;;;;20.97;66.41;101612.34;20989259;28;20110;-72
2023/06/15 17:58:32;;;;;;;2.55;2.20;;;;;;;20.95;65.73;101624.28;20988355;28;20078;-72
2023/06/15 18:08:34;;;;;;;3.53;2.40;;;;;;;20.93;66.33;101632.56;21045025;28;20047;-72
2023/06/15 18:18:35;;;;;;;4.25;2.35;;;;;;;20.91;67.44;101631.84;21068434;28;20083;-72
2023/06/15 18:28:37;;;;;;;3.63;2.45;;;;;;;20.89;64.69;101631.13;21068210;28;20408;-72
2023/06/15 18:38:39;;;;;;;3.05;2.60;;;;;;;20.87;62.89;101646.66;21067972;28;20123;-72
2023/06/15 18:48:41;;;;;;;3.67;2.60;;;;;;;20.83;59.68;101642.53;21068143;28;20086;-73
2023/06/15 18:58:44;;;;;;;5.05;2.75;;;;;;;20.83;61.22;101642.53;21063354;28;20059;-71
2023/06/15 19:08:45;;;;;;;3.60;2.80;;;;;;;20.83;61.37;101645.22;21058965;28;20043;-72
2023/06/15 19:18:48;;;;;;;5.18;3.33;;;;;;;20.81;60.78;101645.34;21048314;28;20131;-71
2023/06/15 19:28:49;;;;;;;4.53;2.90;;;;;;;20.81;60.57;101647.22;21081347;28;20052;-71
2023/06/15 19:38:51;;;;;;;3.10;2.80;;;;;;;20.80;60.89;101659.03;21083243;28;20047;-72
2023/06/15 19:49:03;;;;;;;2.92;2.42;;;;;;;20.73;61.72;101658.69;21082852;28;20139;-71
2023/06/15 19:59:06;;;;;;;2.60;2.22;;;;;;;20.79;65.12;101669.00;21062566;28;20067;-72
2023/06/15 20:09:08;;;;;;;2.88;2.58;;;;;;;20.78;65.38;101678.06;21081485;28;20048;-71
2023/06/15 20:19:11;;;;;;;3.28;2.25;;;;;;;20.77;65.07;101687.19;21080003;28;20055;-72
2023/06/15 20:29:13;;;;;;;4.07;2.65;;;;;;;20.76;64.76;101679.19;21079631;28;20052;-71
2023/06/15 20:39:15;;;;;;;2.55;2.35;;;;;;;20.75;64.77;101685.59;21078353;28;20444;-72
2023/06/15 20:49:17;;;;;;;3.50;2.20;;;;;;;20.72;62.79;101684.88;21060185;28;20131;-71
2023/06/15 20:59:18;;;;;;;2.63;2.15;;;;;;;20.71;63.28;101683.16;21067374;28;20124;-72
2023/06/15 21:09:20;;;;;;;2.58;2.30;;;;;;;20.67;61.97;101692.53;21076917;28;20052;-72
2023/06/15 21:19:21;;;;;;;2.80;2.30;;;;;;;20.65;62.17;101678.28;21002090;28;20059;-72
2023/06/15 21:29:23;;;;;;;3.28;2.35;;;;;;;20.64;60.76;101676.56;20997218;28;20128;-72
2023/06/15 21:39:25;;;;;;;2.67;1.90;;;;;;;20.64;60.71;101682.00;20981765;28;20055;-72
2023/06/15 21:49:26;;;;;;;2.55;1.98;;;;;;;20.62;60.64;101678.56;20913276;28;20036;-72
2023/06/15 21:59:28;;;;;;;2.92;2.20;;;;;;;20.55;60.60;101672.84;20974482;28;20135;-72
2023/06/15 22:09:30;;;;;;;3.20;2.40;;;;;;;20.58;60.75;101682.53;20957867;28;20057;-72
2023/06/15 22:19:34;;;;;;;2.78;2.13;;;;;;;20.56;60.70;101682.69;20959118;28;20071;-72
2023/06/15 22:29:36;;;;;;;2.20;1.93;;;;;;;20.55;61.02;101677.41;20963371;28;20052;-72
2023/06/15 22:39:39;;;;;;;4.28;2.60;;;;;;;20.54;62.74;101679.22;20985198;28;20401;-72
2023/06/15 22:49:42;;;;;;;2.75;2.33;;;;;;;20.55;64.26;101688.22;20959519;28;20596;-72
2023/06/15 22:59:44;;;;;;;2.58;2.25;;;;;;;20.53;69.60;101672.09;20950929;28;20048;-72
2023/06/15 23:09:45;;;;;;;2.13;1.70;;;;;;;20.52;71.16;101666.84;20966772;28;20044;-72
2023/06/15 23:19:49;;;;;;;4.07;2.00;;;;;;;20.51;70.82;101662.44;20963633;28;20505;-72
2023/06/15 23:29:50;;;;;;;2.40;2.20;;;;;;;20.49;70.31;101659.84;20960341;28;20090;-72
2023/06/15 23:39:52;;;;;;;2.40;2.03;;;;;;;20.47;70.03;101661.84;20953124;28;20047;-72
2023/06/15 23:49:53;;;;;;;2.85;2.10;;;;;;;20.46;69.11;101657.41;20965903;28;20041;-72
2023/06/15 23:59:55;;;;;;;2.97;2.17;;;;;;;20.43;70.57;101642.34;20948329;28;20140;-72
